sensor_id;sensor_type;location;lat;lon;timestamp;P1;durP1;ratioP1;P2;durP2;ratioP2
6209;SDS011;3138;52.550;13.148;2023-06-10T00:00:21;18.30;;;7.20;;
6209;SDS011;3138;52.550;13.148;2023-06-10T00:02:49;18.83;;;6.20;;
6209;SDS011;3138;52.550;13.148;2023-06-10T00:05:16;16.10;;;5.80;;
6209;SDS011;3138;52.550;13.148;2023-06-10T00:07:46;24.00;;;8.10;;
6209;SDS011;3138;52.550;13.148;2023-06-10T00:10:13;16.27;;;6.80;;
6209;SDS011;3138;52.550;13.148;2023-06-10T00:12:40;15.80;;;7.20;;
6209;SDS011;3138;52.550;13.148;2023-06-10T00:15:09;19.03;;;7.80;;
6209;SDS011;3138;52.550;13.148;2023-06-10T00:17:36;25.73;;;7.43;;
6209;SDS011;3138;52.550;13.148;2023-06-10T00:20:06;20.97;;;6.23;;
6209;SDS011;3138;52.550;13.148;2023-06-10T00:22:36;24.00;;;7.93;;
6209;SDS011;3138;52.550;13.148;2023-06-10T00:25:04;15.93;;;7.23;;
6209;SDS011;3138;52.550;13.148;2023-06-10T00:27:32;27.23;;;6.63;;
6209;SDS011;3138;52.550;13.148;2023-06-10T00:30:00;13.63;;;7.20;;
6209;SDS011;3138;52.550;13.148;2023-06-10T00:32:29;28.57;;;8.27;;
6209;SDS011;3138;52.550;13.148;2023-06-10T00:34:56;14.20;;;6.83;;
6209;SDS011;3138;52.550;13.148;2023-06-10T00:37:24;21.03;;;7.07;;
6209;SDS011;3138;52.550;13.148;2023-06-10T00:39:51;20.27;;;6.43;;
6209;SDS011;3138;52.550;13.148;2023-06-10T00:42:18;12.90;;;6.70;;
6209;SDS011;3138;52.550;13.148;2023-06-10T00:44:45;18.07;;;6.77;;
6209;SDS011;3138;52.550;13.148;2023-06-10T00:47:13;27.00;;;7.83;;
6209;SDS011;3138;52.550;13.148;2023-06-10T00:49:40;16.30;;;7.10;;
6209;SDS011;3138;52.550;13.148;2023-06-10T00:52:07;16.60;;;6.47;;
6209;SDS011;3138;52.550;13.148;2023-06-10T00:54:36;13.00;;;5.60;;
6209;SDS011;3138;52.550;13.148;2023-06-10T00:57:04;23.83;;;6.00;;
6209;SDS011;3138;52.550;13.148;2023-06-10T00:59:31;15.40;;;6.93;;
6209;SDS011;3138;52.550;13.148;2023-06-10T01:01:59;20.73;;;7.40;;
6209;SDS011;3138;52.550;13.148;2023-06-10T01:04:27;15.17;;;6.97;;
6209;SDS011;3138;52.550;13.148;2023-06-10T01:06:54;14.53;;;5.40;;
6209;SDS011;3138;52.550;13.148;2023-06-10T01:09:29;33.20;;;7.20;;
6209;SDS011;3138;52.550;13.148;2023-06-10T01:12:08;20.03;;;7.40;;
6209;SDS011;3138;52.550;13.148;2023-06-10T01:14:40;15.93;;;7.47;;
6209;SDS011;3138;52.550;13.148;2023-06-10T01:17:10;16.13;;;6.77;;
6209;SDS011;3138;52.550;13.148;2023-06-10T01:19:37;17.73;;;6.90;;
6209;SDS011;3138;52.550;13.148;2023-06-10T01:22:07;14.97;;;6.60;;
6209;SDS011;3138;52.550;13.148;2023-06-10T01:24:35;16.47;;;6.13;;
6209;SDS011;3138;52.550;13.148;2023-06-10T01:27:05;14.30;;;5.80;;
6209;SDS011;3138;52.550;13.148;2023-06-10T01:29:36;16.53;;;6.10;;
6209;SDS011;3138;52.550;13.148;2023-06-10T01:32:08;21.37;;;6.57;;
6209;SDS011;3138;52.550;13.148;2023-06-10T01:34:41;14.40;;;6.17;;
6209;SDS011;3138;52.550;13.148;2023-06-10T01:37:11;17.67;;;5.40;;
6209;SDS011;3138;52.550;13.148;2023-06-10T01:39:41;21.03;;;6.53;;
6209;SDS011;3138;52.550;13.148;2023-06-10T01:42:09;17.37;;;6.57;;
6209;SDS011;3138;52.550;13.148;2023-06-10T01:44:38;24.17;;;6.37;;
6209;SDS011;3138;52.550;13.148;2023-06-10T01:47:06;20.83;;;7.27;;
6209;SDS011;3138;52.550;13.148;2023-06-10T01:49:33;15.43;;;6.73;;
6209;SDS011;3138;52.550;13.148;2023-06-10T01:52:00;20.10;;;6.67;;
6209;SDS011;3138;52.550;13.148;2023-06-10T01:54:29;21.47;;;5.90;;
6209;SDS011;3138;52.550;13.148;2023-06-10T01:56:55;24.43;;;8.43;;
6209;SDS011;3138;52.550;13.148;2023-06-10T01:59:22;16.37;;;5.93;;
6209;SDS011;3138;52.550;13.148;2023-06-10T02:01:49;20.90;;;6.80;;
6209;SDS011;3138;52.550;13.148;2023-06-10T02:04:16;22.80;;;7.30;;
6209;SDS011;3138;52.550;13.148;2023-06-10T02:06:43;23.43;;;6.67;;
6209;SDS011;3138;52.550;13.148;2023-06-10T02:09:10;16.17;;;6.37;;
6209;SDS011;3138;52.550;13.148;2023-06-10T02:11:38;21.30;;;7.30;;
6209;SDS011;3138;52.550;13.148;2023-06-10T02:14:05;17.33;;;6.80;;
6209;SDS011;3138;52.550;13.148;2023-06-10T02:16:32;22.37;;;5.90;;
6209;SDS011;3138;52.550;13.148;2023-06-10T02:18:59;26.30;;;7.40;;
6209;SDS011;3138;52.550;13.148;2023-06-10T02:21:28;29.33;;;7.57;;
6209;SDS011;3138;52.550;13.148;2023-06-10T02:23:55;28.83;;;7.50;;
6209;SDS011;3138;52.550;13.148;2023-06-10T02:26:21;24.20;;;7.97;;
6209;SDS011;3138;52.550;13.148;2023-06-10T02:28:52;19.53;;;6.07;;
6209;SDS011;3138;52.550;13.148;2023-06-10T02:31:19;21.00;;;7.20;;
6209;SDS011;3138;52.550;13.148;2023-06-10T02:33:46;17.40;;;5.93;;
6209;SDS011;3138;52.550;13.148;2023-06-10T02:36:13;21.40;;;7.40;;
6209;SDS011;3138;52.550;13.148;2023-06-10T02:38:40;15.87;;;6.40;;
6209;SDS011;3138;52.550;13.148;2023-06-10T02:41:07;27.33;;;6.57;;
6209;SDS011;3138;52.550;13.148;2023-06-10T02:43:34;20.57;;;7.10;;
6209;SDS011;3138;52.550;13.148;2023-06-10T02:46:02;16.80;;;7.00;;
6209;SDS011;3138;52.550;13.148;2023-06-10T02:48:29;18.67;;;5.73;;
6209;SDS011;3138;52.550;13.148;2023-06-10T02:50:56;15.17;;;7.23;;
6209;SDS011;3138;52.550;13.148;2023-06-10T02:53:23;25.27;;;7.53;;
6209;SDS011;3138;52.550;13.148;2023-06-10T02:55:50;24.10;;;7.40;;
6209;SDS011;3138;52.550;13.148;2023-06-10T02:58:16;21.00;;;7.20;;
6209;SDS011;3138;52.550;13.148;2023-06-10T03:00:43;23.00;;;6.70;;
6209;SDS011;3138;52.550;13.148;2023-06-10T03:03:11;22.70;;;9.20;;
6209;SDS011;3138;52.550;13.148;2023-06-10T03:05:38;23.20;;;6.67;;
6209;SDS011;3138;52.550;13.148;2023-06-10T03:08:05;13.40;;;6.00;;
6209;SDS011;3138;52.550;13.148;2023-06-10T03:10:32;15.10;;;7.20;;
6209;SDS011;3138;52.550;13.148;2023-06-10T03:12:59;21.83;;;7.67;;
6209;SDS011;3138;52.550;13.148;2023-06-10T03:15:26;27.30;;;7.13;;
6209;SDS011;3138;52.550;13.148;2023-06-10T03:17:54;15.10;;;6.30;;
6209;SDS011;3138;52.550;13.148;2023-06-10T03:20:22;13.83;;;6.60;;
6209;SDS011;3138;52.550;13.148;2023-06-10T03:22:50;30.60;;;7.70;;
6209;SDS011;3138;52.550;13.148;2023-06-10T03:25:17;30.57;;;7.80;;
6209;SDS011;3138;52.550;13.148;2023-06-10T03:27:46;18.90;;;6.87;;
6209;SDS011;3138;52.550;13.148;2023-06-10T03:30:13;24.33;;;6.40;;
6209;SDS011;3138;52.550;13.148;2023-06-10T03:32:40;20.97;;;6.90;;
6209;SDS011;3138;52.550;13.148;2023-06-10T03:35:07;27.90;;;7.90;;
6209;SDS011;3138;52.550;13.148;2023-06-10T03:37:36;22.90;;;7.97;;
6209;SDS011;3138;52.550;13.148;2023-06-10T03:40:03;20.53;;;7.47;;
6209;SDS011;3138;52.550;13.148;2023-06-10T03:42:31;23.00;;;6.80;;
6209;SDS011;3138;52.550;13.148;2023-06-10T03:44:58;20.73;;;6.77;;
6209;SDS011;3138;52.550;13.148;2023-06-10T03:47:25;39.70;;;6.50;;
6209;SDS011;3138;52.550;13.148;2023-06-10T03:49:52;22.37;;;7.40;;
6209;SDS011;3138;52.550;13.148;2023-06-10T03:52:19;19.77;;;7.90;;
6209;SDS011;3138;52.550;13.148;2023-06-10T03:54:47;24.63;;;7.93;;
6209;SDS011;3138;52.550;13.148;2023-06-10T03:57:14;27.27;;;6.53;;
6209;SDS011;3138;52.550;13.148;2023-06-10T03:59:40;19.80;;;7.20;;
6209;SDS011;3138;52.550;13.148;2023-06-10T04:02:07;27.60;;;7.00;;
6209;SDS011;3138;52.550;13.148;2023-06-10T04:04:34;14.87;;;6.60;;
6209;SDS011;3138;52.550;13.148;2023-06-10T04:07:02;24.30;;;6.67;;
6209;SDS011;3138;52.550;13.148;2023-06-10T04:09:30;22.07;;;7.40;;
6209;SDS011;3138;52.550;13.148;2023-06-10T04:11:58;17.93;;;7.00;;
6209;SDS011;3138;52.550;13.148;2023-06-10T04:14:25;15.40;;;7.30;;
6209;SDS011;3138;52.550;13.148;2023-06-10T04:16:52;15.90;;;6.73;;
6209;SDS011;3138;52.550;13.148;2023-06-10T04:19:19;22.50;;;8.90;;
6209;SDS011;3138;52.550;13.148;2023-06-10T04:21:46;40.63;;;7.57;;
6209;SDS011;3138;52.550;13.148;2023-06-10T04:24:13;19.73;;;7.27;;
6209;SDS011;3138;52.550;13.148;2023-06-10T04:26:40;16.57;;;7.77;;
6209;SDS011;3138;52.550;13.148;2023-06-10T04:29:08;15.67;;;6.67;;
6209;SDS011;3138;52.550;13.148;2023-06-10T04:31:35;17.40;;;7.30;;
6209;SDS011;3138;52.550;13.148;2023-06-10T04:34:01;22.83;;;6.90;;
6209;SDS011;3138;52.550;13.148;2023-06-10T04:36:28;9.80;;;5.70;;
6209;SDS011;3138;52.550;13.148;2023-06-10T04:38:55;21.17;;;6.80;;
6209;SDS011;3138;52.550;13.148;2023-06-10T04:41:22;11.47;;;6.70;;
6209;SDS011;3138;52.550;13.148;2023-06-10T04:43:50;18.40;;;6.80;;
6209;SDS011;3138;52.550;13.148;2023-06-10T04:46:20;13.47;;;6.40;;
6209;SDS011;3138;52.550;13.148;2023-06-10T04:48:47;15.47;;;6.43;;
6209;SDS011;3138;52.550;13.148;2023-06-10T04:51:14;23.10;;;7.90;;
6209;SDS011;3138;52.550;13.148;2023-06-10T04:53:41;11.57;;;6.27;;
6209;SDS011;3138;52.550;13.148;2023-06-10T04:56:09;22.03;;;8.03;;
6209;SDS011;3138;52.550;13.148;2023-06-10T04:58:35;18.13;;;7.03;;
6209;SDS011;3138;52.550;13.148;2023-06-10T05:01:02;19.53;;;7.17;;
6209;SDS011;3138;52.550;13.148;2023-06-10T05:03:30;17.07;;;6.57;;
6209;SDS011;3138;52.550;13.148;2023-06-10T05:05:57;13.40;;;6.40;;
6209;SDS011;3138;52.550;13.148;2023-06-10T05:08:24;18.33;;;7.90;;
6209;SDS011;3138;52.550;13.148;2023-06-10T05:10:51;14.00;;;6.33;;
6209;SDS011;3138;52.550;13.148;2023-06-10T05:13:17;15.60;;;7.07;;
6209;SDS011;3138;52.550;13.148;2023-06-10T05:15:44;15.60;;;6.40;;
6209;SDS011;3138;52.550;13.148;2023-06-10T05:18:11;14.70;;;7.67;;
6209;SDS011;3138;52.550;13.148;2023-06-10T05:20:40;16.70;;;6.60;;
6209;SDS011;3138;52.550;13.148;2023-06-10T05:23:06;15.03;;;6.70;;
6209;SDS011;3138;52.550;13.148;2023-06-10T05:25:33;14.80;;;7.80;;
6209;SDS011;3138;52.550;13.148;2023-06-10T05:28:01;16.33;;;7.60;;
6209;SDS011;3138;52.550;13.148;2023-06-10T05:30:28;16.57;;;7.03;;
6209;SDS011;3138;52.550;13.148;2023-06-10T05:32:54;24.40;;;7.03;;
6209;SDS011;3138;52.550;13.148;2023-06-10T05:35:21;16.43;;;6.47;;
6209;SDS011;3138;52.550;13.148;2023-06-10T05:37:50;17.83;;;7.80;;
6209;SDS011;3138;52.550;13.148;2023-06-10T05:40:17;16.13;;;8.10;;
6209;SDS011;3138;52.550;13.148;2023-06-10T05:42:43;21.13;;;8.40;;
6209;SDS011;3138;52.550;13.148;2023-06-10T05:45:10;16.77;;;6.57;;
6209;SDS011;3138;52.550;13.148;2023-06-10T05:47:37;17.43;;;7.33;;
6209;SDS011;3138;52.550;13.148;2023-06-10T05:50:05;10.70;;;6.93;;
6209;SDS011;3138;52.550;13.148;2023-06-10T05:52:33;19.93;;;6.83;;
6209;SDS011;3138;52.550;13.148;2023-06-10T05:55:01;12.17;;;6.90;;
6209;SDS011;3138;52.550;13.148;2023-06-10T05:57:28;13.77;;;6.77;;
6209;SDS011;3138;52.550;13.148;2023-06-10T05:59:55;15.10;;;6.80;;
6209;SDS011;3138;52.550;13.148;2023-06-10T06:02:22;17.50;;;7.43;;
6209;SDS011;3138;52.550;13.148;2023-06-10T06:04:49;33.83;;;7.27;;
6209;SDS011;3138;52.550;13.148;2023-06-10T06:07:16;20.40;;;8.30;;
6209;SDS011;3138;52.550;13.148;2023-06-10T06:09:45;21.57;;;8.00;;
6209;SDS011;3138;52.550;13.148;2023-06-10T06:12:13;13.90;;;7.60;;
6209;SDS011;3138;52.550;13.148;2023-06-10T06:14:40;23.00;;;8.03;;
6209;SDS011;3138;52.550;13.148;2023-06-10T06:17:07;18.07;;;8.10;;
6209;SDS011;3138;52.550;13.148;2023-06-10T06:19:34;14.40;;;7.50;;
6209;SDS011;3138;52.550;13.148;2023-06-10T06:22:01;19.33;;;7.47;;
6209;SDS011;3138;52.550;13.148;2023-06-10T06:24:28;25.40;;;7.53;;
6209;SDS011;3138;52.550;13.148;2023-06-10T06:26:55;14.60;;;8.03;;
6209;SDS011;3138;52.550;13.148;2023-06-10T06:29:23;11.10;;;7.63;;
6209;SDS011;3138;52.550;13.148;2023-06-10T06:31:50;23.60;;;7.83;;
6209;SDS011;3138;52.550;13.148;2023-06-10T06:34:17;16.80;;;7.70;;
6209;SDS011;3138;52.550;13.148;2023-06-10T06:36:44;16.93;;;8.97;;
6209;SDS011;3138;52.550;13.148;2023-06-10T06:39:10;14.47;;;8.27;;
6209;SDS011;3138;52.550;13.148;2023-06-10T06:41:37;18.63;;;7.57;;
6209;SDS011;3138;52.550;13.148;2023-06-10T06:44:04;18.47;;;8.90;;
6209;SDS011;3138;52.550;13.148;2023-06-10T06:46:32;16.47;;;8.00;;
6209;SDS011;3138;52.550;13.148;2023-06-10T06:48:59;22.10;;;7.83;;
6209;SDS011;3138;52.550;13.148;2023-06-10T06:51:26;20.97;;;8.43;;
6209;SDS011;3138;52.550;13.148;2023-06-10T06:53:53;12.63;;;7.97;;
6209;SDS011;3138;52.550;13.148;2023-06-10T06:56:23;20.87;;;8.20;;
6209;SDS011;3138;52.550;13.148;2023-06-10T06:58:52;18.73;;;9.00;;
6209;SDS011;3138;52.550;13.148;2023-06-10T07:01:18;16.93;;;8.17;;
6209;SDS011;3138;52.550;13.148;2023-06-10T07:03:47;12.53;;;7.80;;
6209;SDS011;3138;52.550;13.148;2023-06-10T07:06:13;21.27;;;7.90;;
6209;SDS011;3138;52.550;13.148;2023-06-10T07:08:40;21.03;;;8.67;;
6209;SDS011;3138;52.550;13.148;2023-06-10T07:11:07;21.13;;;7.53;;
6209;SDS011;3138;52.550;13.148;2023-06-10T07:13:34;16.07;;;8.20;;
6209;SDS011;3138;52.550;13.148;2023-06-10T07:16:01;14.10;;;7.93;;
6209;SDS011;3138;52.550;13.148;2023-06-10T07:18:28;18.30;;;8.63;;
6209;SDS011;3138;52.550;13.148;2023-06-10T07:20:56;10.53;;;7.80;;
6209;SDS011;3138;52.550;13.148;2023-06-10T07:23:23;13.90;;;7.40;;
6209;SDS011;3138;52.550;13.148;2023-06-10T07:25:50;13.80;;;8.53;;
6209;SDS011;3138;52.550;13.148;2023-06-10T07:28:17;14.67;;;8.13;;
6209;SDS011;3138;52.550;13.148;2023-06-10T07:30:43;14.80;;;8.37;;
6209;SDS011;3138;52.550;13.148;2023-06-10T07:33:10;15.13;;;8.27;;
6209;SDS011;3138;52.550;13.148;2023-06-10T07:35:37;21.40;;;8.37;;
6209;SDS011;3138;52.550;13.148;2023-06-10T07:38:05;14.00;;;8.07;;
6209;SDS011;3138;52.550;13.148;2023-06-10T07:40:32;18.17;;;8.40;;
6209;SDS011;3138;52.550;13.148;2023-06-10T07:42:59;15.93;;;8.77;;
6209;SDS011;3138;52.550;13.148;2023-06-10T07:45:26;30.77;;;8.63;;
6209;SDS011;3138;52.550;13.148;2023-06-10T07:47:53;17.67;;;9.17;;
6209;SDS011;3138;52.550;13.148;2023-06-10T07:50:20;15.67;;;9.13;;
6209;SDS011;3138;52.550;13.148;2023-06-10T07:52:47;19.73;;;8.30;;
6209;SDS011;3138;52.550;13.148;2023-06-10T07:55:15;15.40;;;8.10;;
6209;SDS011;3138;52.550;13.148;2023-06-10T07:57:42;23.30;;;8.53;;
6209;SDS011;3138;52.550;13.148;2023-06-10T08:00:09;19.47;;;8.67;;
6209;SDS011;3138;52.550;13.148;2023-06-10T08:02:37;20.10;;;9.50;;
6209;SDS011;3138;52.550;13.148;2023-06-10T08:05:04;16.97;;;9.07;;
6209;SDS011;3138;52.550;13.148;2023-06-10T08:07:31;29.63;;;9.20;;
6209;SDS011;3138;52.550;13.148;2023-06-10T08:09:58;27.30;;;8.10;;
6209;SDS011;3138;52.550;13.148;2023-06-10T08:12:26;22.00;;;7.90;;
6209;SDS011;3138;52.550;13.148;2023-06-10T08:14:53;42.00;;;9.00;;
6209;SDS011;3138;52.550;13.148;2023-06-10T08:17:20;16.93;;;7.90;;
6209;SDS011;3138;52.550;13.148;2023-06-10T08:19:46;11.30;;;7.40;;
6209;SDS011;3138;52.550;13.148;2023-06-10T08:22:13;12.13;;;9.00;;
6209;SDS011;3138;52.550;13.148;2023-06-10T08:24:41;24.90;;;8.70;;
6209;SDS011;3138;52.550;13.148;2023-06-10T08:27:07;23.17;;;8.53;;
6209;SDS011;3138;52.550;13.148;2023-06-10T08:29:36;13.77;;;8.60;;
6209;SDS011;3138;52.550;13.148;2023-06-10T08:32:03;11.10;;;8.67;;
6209;SDS011;3138;52.550;13.148;2023-06-10T08:34:32;25.80;;;9.07;;
6209;SDS011;3138;52.550;13.148;2023-06-10T08:37:00;15.50;;;8.23;;
6209;SDS011;3138;52.550;13.148;2023-06-10T08:39:27;12.10;;;8.20;;
6209;SDS011;3138;52.550;13.148;2023-06-10T08:42:00;18.77;;;8.60;;
6209;SDS011;3138;52.550;13.148;2023-06-10T08:44:38;13.17;;;8.30;;
6209;SDS011;3138;52.550;13.148;2023-06-10T08:47:06;20.33;;;8.47;;
6209;SDS011;3138;52.550;13.148;2023-06-10T08:49:43;21.30;;;8.63;;
6209;SDS011;3138;52.550;13.148;2023-06-10T08:52:13;19.53;;;8.40;;
6209;SDS011;3138;52.550;13.148;2023-06-10T08:54:42;33.43;;;7.87;;
6209;SDS011;3138;52.550;13.148;2023-06-10T08:57:11;18.87;;;7.67;;
6209;SDS011;3138;52.550;13.148;2023-06-10T08:59:40;17.77;;;8.13;;
6209;SDS011;3138;52.550;13.148;2023-06-10T09:02:07;21.90;;;8.70;;
6209;SDS011;3138;52.550;13.148;2023-06-10T09:04:36;23.77;;;8.13;;
6209;SDS011;3138;52.550;13.148;2023-06-10T09:07:03;12.10;;;8.30;;
6209;SDS011;3138;52.550;13.148;2023-06-10T09:09:31;21.00;;;8.90;;
6209;SDS011;3138;52.550;13.148;2023-06-10T09:12:01;20.40;;;9.23;;
6209;SDS011;3138;52.550;13.148;2023-06-10T09:14:28;22.20;;;8.77;;
6209;SDS011;3138;52.550;13.148;2023-06-10T09:16:56;20.53;;;9.37;;
6209;SDS011;3138;52.550;13.148;2023-06-10T09:19:23;13.03;;;9.17;;
6209;SDS011;3138;52.550;13.148;2023-06-10T09:21:51;16.33;;;8.17;;
6209;SDS011;3138;52.550;13.148;2023-06-10T09:24:18;15.60;;;7.97;;
6209;SDS011;3138;52.550;13.148;2023-06-10T09:26:44;21.23;;;8.67;;
6209;SDS011;3138;52.550;13.148;2023-06-10T09:29:11;19.90;;;7.50;;
6209;SDS011;3138;52.550;13.148;2023-06-10T09:31:38;28.37;;;8.83;;
6209;SDS011;3138;52.550;13.148;2023-06-10T09:34:08;21.13;;;8.13;;
6209;SDS011;3138;52.550;13.148;2023-06-10T09:36:36;22.30;;;8.70;;
6209;SDS011;3138;52.550;13.148;2023-06-10T09:39:04;20.47;;;8.23;;
6209;SDS011;3138;52.550;13.148;2023-06-10T09:41:39;18.67;;;8.80;;
6209;SDS011;3138;52.550;13.148;2023-06-10T09:44:09;19.60;;;9.87;;
6209;SDS011;3138;52.550;13.148;2023-06-10T09:46:39;22.37;;;9.30;;
6209;SDS011;3138;52.550;13.148;2023-06-10T09:49:07;20.00;;;8.90;;
6209;SDS011;3138;52.550;13.148;2023-06-10T09:51:34;19.43;;;8.60;;
6209;SDS011;3138;52.550;13.148;2023-06-10T09:54:02;21.77;;;9.20;;
6209;SDS011;3138;52.550;13.148;2023-06-10T09:56:32;20.40;;;9.23;;
6209;SDS011;3138;52.550;13.148;2023-06-10T09:59:00;20.00;;;8.67;;
6209;SDS011;3138;52.550;13.148;2023-06-10T10:01:28;19.50;;;9.03;;
6209;SDS011;3138;52.550;13.148;2023-06-10T10:03:57;21.63;;;9.00;;
6209;SDS011;3138;52.550;13.148;2023-06-10T10:06:25;17.77;;;10.00;;
6209;SDS011;3138;52.550;13.148;2023-06-10T10:08:53;21.47;;;10.17;;
6209;SDS011;3138;52.550;13.148;2023-06-10T10:11:21;25.47;;;10.37;;
6209;SDS011;3138;52.550;13.148;2023-06-10T10:13:49;17.93;;;9.40;;
6209;SDS011;3138;52.550;13.148;2023-06-10T10:16:19;14.77;;;8.93;;
6209;SDS011;3138;52.550;13.148;2023-06-10T10:18:49;17.10;;;9.73;;
6209;SDS011;3138;52.550;13.148;2023-06-10T10:21:21;20.87;;;9.90;;
6209;SDS011;3138;52.550;13.148;2023-06-10T10:23:52;13.47;;;8.33;;
6209;SDS011;3138;52.550;13.148;2023-06-10T10:26:24;19.53;;;8.87;;
6209;SDS011;3138;52.550;13.148;2023-06-10T10:28:53;18.60;;;10.00;;
6209;SDS011;3138;52.550;13.148;2023-06-10T10:31:31;25.87;;;9.17;;
6209;SDS011;3138;52.550;13.148;2023-06-10T10:34:02;18.70;;;9.30;;
6209;SDS011;3138;52.550;13.148;2023-06-10T10:36:32;42.40;;;9.70;;
6209;SDS011;3138;52.550;13.148;2023-06-10T10:39:00;15.73;;;8.53;;
6209;SDS011;3138;52.550;13.148;2023-06-10T10:41:28;17.60;;;9.40;;
6209;SDS011;3138;52.550;13.148;2023-06-10T10:43:57;18.03;;;9.00;;
6209;SDS011;3138;52.550;13.148;2023-06-10T10:46:25;22.13;;;9.23;;
6209;SDS011;3138;52.550;13.148;2023-06-10T10:48:52;25.57;;;9.67;;
6209;SDS011;3138;52.550;13.148;2023-06-10T10:51:22;24.43;;;9.90;;
6209;SDS011;3138;52.550;13.148;2023-06-10T10:56:38;14.07;;;7.00;;
6209;SDS011;3138;52.550;13.148;2023-06-10T10:59:06;11.20;;;7.40;;
6209;SDS011;3138;52.550;13.148;2023-06-10T11:01:39;24.80;;;8.70;;
6209;SDS011;3138;52.550;13.148;2023-06-10T11:04:07;18.73;;;7.83;;
6209;SDS011;3138;52.550;13.148;2023-06-10T11:06:35;10.90;;;7.23;;
6209;SDS011;3138;52.550;13.148;2023-06-10T11:09:02;13.60;;;6.97;;
6209;SDS011;3138;52.550;13.148;2023-06-10T11:11:53;12.43;;;7.40;;
6209;SDS011;3138;52.550;13.148;2023-06-10T11:14:26;19.10;;;8.20;;
6209;SDS011;3138;52.550;13.148;2023-06-10T11:16:56;14.43;;;8.00;;
6209;SDS011;3138;52.550;13.148;2023-06-10T11:19:32;12.77;;;7.70;;
6209;SDS011;3138;52.550;13.148;2023-06-10T11:22:00;18.23;;;8.80;;
6209;SDS011;3138;52.550;13.148;2023-06-10T11:24:29;14.03;;;8.03;;
6209;SDS011;3138;52.550;13.148;2023-06-10T11:29:54;10.70;;;7.97;;
6209;SDS011;3138;52.550;13.148;2023-06-10T11:32:25;31.10;;;9.23;;
6209;SDS011;3138;52.550;13.148;2023-06-10T11:34:56;25.93;;;8.60;;
6209;SDS011;3138;52.550;13.148;2023-06-10T11:37:24;16.23;;;7.50;;
6209;SDS011;3138;52.550;13.148;2023-06-10T11:39:52;14.57;;;8.87;;
6209;SDS011;3138;52.550;13.148;2023-06-10T11:42:20;15.03;;;7.63;;
6209;SDS011;3138;52.550;13.148;2023-06-10T11:44:48;18.10;;;7.90;;
6209;SDS011;3138;52.550;13.148;2023-06-10T11:47:16;20.10;;;8.83;;
6209;SDS011;3138;52.550;13.148;2023-06-10T11:49:43;25.20;;;8.60;;
6209;SDS011;3138;52.550;13.148;2023-06-10T11:52:10;21.17;;;9.30;;
6209;SDS011;3138;52.550;13.148;2023-06-10T11:54:37;12.17;;;7.07;;
6209;SDS011;3138;52.550;13.148;2023-06-10T11:57:06;15.53;;;8.80;;
6209;SDS011;3138;52.550;13.148;2023-06-10T11:59:33;11.60;;;7.87;;
6209;SDS011;3138;52.550;13.148;2023-06-10T12:02:00;15.03;;;7.97;;
6209;SDS011;3138;52.550;13.148;2023-06-10T12:04:28;16.00;;;8.73;;
6209;SDS011;3138;52.550;13.148;2023-06-10T12:06:55;14.40;;;7.53;;
6209;SDS011;3138;52.550;13.148;2023-06-10T12:09:22;17.70;;;8.50;;
6209;SDS011;3138;52.550;13.148;2023-06-10T12:11:50;14.83;;;7.53;;
6209;SDS011;3138;52.550;13.148;2023-06-10T12:17:20;11.10;;;7.70;;
6209;SDS011;3138;52.550;13.148;2023-06-10T12:19:48;9.73;;;7.63;;
6209;SDS011;3138;52.550;13.148;2023-06-10T12:22:15;10.80;;;6.97;;
6209;SDS011;3138;52.550;13.148;2023-06-10T12:24:44;15.03;;;6.97;;
6209;SDS011;3138;52.550;13.148;2023-06-10T12:27:11;11.50;;;6.40;;
6209;SDS011;3138;52.550;13.148;2023-06-10T12:29:39;13.80;;;6.80;;
6209;SDS011;3138;52.550;13.148;2023-06-10T12:32:18;17.73;;;6.13;;
6209;SDS011;3138;52.550;13.148;2023-06-10T12:34:45;8.80;;;6.47;;
6209;SDS011;3138;52.550;13.148;2023-06-10T12:37:12;8.70;;;6.20;;
6209;SDS011;3138;52.550;13.148;2023-06-10T12:39:39;14.90;;;7.10;;
6209;SDS011;3138;52.550;13.148;2023-06-10T12:42:08;9.63;;;6.43;;
6209;SDS011;3138;52.550;13.148;2023-06-10T12:44:37;9.17;;;6.40;;
6209;SDS011;3138;52.550;13.148;2023-06-10T12:47:09;20.10;;;6.63;;
6209;SDS011;3138;52.550;13.148;2023-06-10T12:49:38;12.17;;;6.50;;
6209;SDS011;3138;52.550;13.148;2023-06-10T12:52:05;7.47;;;6.30;;
6209;SDS011;3138;52.550;13.148;2023-06-10T12:54:33;7.77;;;6.27;;
6209;SDS011;3138;52.550;13.148;2023-06-10T12:57:00;8.87;;;6.23;;
6209;SDS011;3138;52.550;13.148;2023-06-10T12:59:27;10.03;;;6.23;;
6209;SDS011;3138;52.550;13.148;2023-06-10T13:01:54;15.60;;;6.27;;
6209;SDS011;3138;52.550;13.148;2023-06-10T13:04:21;10.37;;;6.37;;
6209;SDS011;3138;52.550;13.148;2023-06-10T13:06:50;6.80;;;6.00;;
6209;SDS011;3138;52.550;13.148;2023-06-10T13:09:16;9.97;;;6.17;;
6209;SDS011;3138;52.550;13.148;2023-06-10T13:11:43;9.00;;;5.60;;
6209;SDS011;3138;52.550;13.148;2023-06-10T13:14:11;5.90;;;5.30;;
6209;SDS011;3138;52.550;13.148;2023-06-10T13:16:38;10.47;;;6.63;;
6209;SDS011;3138;52.550;13.148;2023-06-10T13:19:05;8.70;;;6.33;;
6209;SDS011;3138;52.550;13.148;2023-06-10T13:21:32;7.17;;;5.83;;
6209;SDS011;3138;52.550;13.148;2023-06-10T13:24:01;15.07;;;6.80;;
6209;SDS011;3138;52.550;13.148;2023-06-10T13:26:28;8.67;;;6.70;;
6209;SDS011;3138;52.550;13.148;2023-06-10T13:28:55;7.03;;;6.33;;
6209;SDS011;3138;52.550;13.148;2023-06-10T13:31:22;19.10;;;7.63;;
6209;SDS011;3138;52.550;13.148;2023-06-10T13:33:50;11.43;;;7.43;;
6209;SDS011;3138;52.550;13.148;2023-06-10T13:36:17;11.20;;;8.20;;
6209;SDS011;3138;52.550;13.148;2023-06-10T13:38:44;10.83;;;7.60;;
6209;SDS011;3138;52.550;13.148;2023-06-10T13:41:13;20.93;;;8.53;;
6209;SDS011;3138;52.550;13.148;2023-06-10T13:43:40;12.07;;;8.50;;
6209;SDS011;3138;52.550;13.148;2023-06-10T13:46:07;22.53;;;9.30;;
6209;SDS011;3138;52.550;13.148;2023-06-10T13:48:34;20.60;;;10.13;;
6209;SDS011;3138;52.550;13.148;2023-06-10T13:51:01;16.50;;;9.53;;
6209;SDS011;3138;52.550;13.148;2023-06-10T13:53:28;12.80;;;7.50;;
6209;SDS011;3138;52.550;13.148;2023-06-10T13:55:55;11.57;;;9.07;;
6209;SDS011;3138;52.550;13.148;2023-06-10T13:58:23;19.63;;;8.43;;
6209;SDS011;3138;52.550;13.148;2023-06-10T14:00:50;14.57;;;8.57;;
6209;SDS011;3138;52.550;13.148;2023-06-10T14:03:16;13.80;;;8.53;;
6209;SDS011;3138;52.550;13.148;2023-06-10T14:05:43;18.07;;;7.87;;
6209;SDS011;3138;52.550;13.148;2023-06-10T14:08:10;8.27;;;7.30;;
6209;SDS011;3138;52.550;13.148;2023-06-10T14:10:38;13.73;;;8.03;;
6209;SDS011;3138;52.550;13.148;2023-06-10T14:13:05;21.60;;;7.53;;
6209;SDS011;3138;52.550;13.148;2023-06-10T14:15:33;12.07;;;7.00;;
6209;SDS011;3138;52.550;13.148;2023-06-10T14:18:00;16.10;;;7.67;;
6209;SDS011;3138;52.550;13.148;2023-06-10T14:20:27;22.63;;;7.60;;
6209;SDS011;3138;52.550;13.148;2023-06-10T14:22:56;12.70;;;6.87;;
6209;SDS011;3138;52.550;13.148;2023-06-10T14:25:23;9.33;;;6.47;;
6209;SDS011;3138;52.550;13.148;2023-06-10T14:27:50;9.67;;;7.10;;
6209;SDS011;3138;52.550;13.148;2023-06-10T14:30:17;25.87;;;7.27;;
6209;SDS011;3138;52.550;13.148;2023-06-10T14:32:45;11.27;;;6.93;;
6209;SDS011;3138;52.550;13.148;2023-06-10T14:35:12;9.50;;;7.40;;
6209;SDS011;3138;52.550;13.148;2023-06-10T14:37:39;8.13;;;7.10;;
6209;SDS011;3138;52.550;13.148;2023-06-10T14:40:06;10.20;;;7.30;;
6209;SDS011;3138;52.550;13.148;2023-06-10T14:42:34;7.60;;;6.80;;
6209;SDS011;3138;52.550;13.148;2023-06-10T14:45:01;8.27;;;6.70;;
6209;SDS011;3138;52.550;13.148;2023-06-10T14:47:28;9.77;;;6.47;;
6209;SDS011;3138;52.550;13.148;2023-06-10T14:49:56;12.73;;;6.00;;
6209;SDS011;3138;52.550;13.148;2023-06-10T14:52:23;8.40;;;6.70;;
6209;SDS011;3138;52.550;13.148;2023-06-10T14:54:49;25.87;;;6.73;;
6209;SDS011;3138;52.550;13.148;2023-06-10T14:57:16;10.83;;;5.67;;
6209;SDS011;3138;52.550;13.148;2023-06-10T14:59:43;7.37;;;6.20;;